Airfield :
LOGIN :

Register | Disclaimer

   EN    FR    IT 

 










Legend :    VFR   Marginal VFR   IFR   Intensive IFR   Very Intensive IFR
Visi :
Ceiling :
>= 8 km
>= 3000ft
5 to 8 km
1000 to 3000 ft
1500m to 5 km
500 to 1000 ft
800 to 1500m
200 to 500 ft
< 800m
< 200 ft
Symbols :   Thunderstorms  Fog  Heavy snow  Heavy precipitations  Wind > 20 kt
SIGMETs :     Misc.  Thunderstorms  Icing  Turbulence  Mountain Waves  Volcanic Ashes






- Airport Elevation : 297 ft


EGVP - Middle Wallop

CURRENT METAR :
  • 011420Z 08004KT 9999 FEW004 07/04 Q1028 NOSIG RMK BLU BLU

EXPIRED METARs :
  • 011350Z 08004KT 9999 FEW004 07/05 Q1028 NOSIG RMK BLU BLU
  • 011320Z 29001KT 9999 7000SW BR FEW004 07/07 Q1028 BECMG 9999 NSW RMK WHT BECMG BLU
  • 011309Z 28001KT 9999 7000SW BR FEW004 07/07 Q1028 TEMPO 9999 NSW RMK WHT TEMPO BLU
  • 011250Z 29002KT 9999 1700SW BR FEW003 06/06 Q1028 BECMG 7000 RMK YLO2 BECMG WHT
  • 011240Z 28002KT 9999 1600SW BR FEW003 06/06 Q1028 BECMG 4000 RMK YLO2 BECMG GRN
  • 011220Z 26002KT 3000 1000SW VCFG FEW002 06/06 Q1028 BECMG 4000 BR RMK AMB BECMG GRN
  • 011150Z 27002KT 3000 1600S VCFG SCT002 06/06 Q1029 BECMG 4000 FEW008 RMK AMB BECMG GRN
  • 011120Z 09002KT 2500 1200SE VCFG SCT001 05/05 Q1029 BECMG 3000 FEW004 RMK RED BECMG YLO1

TAF AMD TAF EGVP
Valid from the 01 at 13:00 until the 01 at 18:00 UTC


011319Z 0113/0118 06002KT 7000 BR FEW008
BECMG 0113/0115 9999 NSW
PROB40
TEMPO 0113/0116 4000 HZ
PROB30
TEMPO 0113/0116 9999 NSW
BECMG 0116/0118 1500 BR
PROB40 0117/0118 0200 FG BKN001
ATIS : +44 1980 674 142



MET'MAP, your aeronautical weather chart ! - Copyright ORBIFLY December 2007 - Disclaimer

ORBIFLY MET'MAP TEAM :

Programming & Development : Alexandra Zaïnal
Original concept : Baudouin d'Aumeries
Technical & hardware support : Manuel Goepfert
Assistance : Marc-Olivier Méhu




SOURCES & CREDITS :

   NOAA